Time;durP1;ratioP1;P1;durP2;ratioP2;P2;SDS_P1;SDS_P2;PMS_P1;PMS_P2;Temp;Humidity;BMP_temperature;BMP_pressure;BME280_temperature;BME280_humidity;BME280_pressure;Samples;Min_cycle;Max_cycle;Signal;HPM_P1;HPM_P2
2021/11/19 00:00:30;;;;;;;;;45.50;33.50;;;;;8.96;78.12;102390.69;5120343;27;45356;-70
2021/11/19 00:02:55;;;;;;;;;42.25;33.25;;;;;8.99;78.10;102400.34;5158096;27;45401;-69
2021/11/19 00:05:21;;;;;;;;;45.25;32.25;;;;;8.98;77.72;102396.81;5122908;27;45996;-74
2021/11/19 00:07:47;;;;;;;;;52.25;40.75;;;;;8.90;78.19;102385.47;5119571;27;45425;-73
2021/11/19 00:10:12;;;;;;;;;37.25;32.75;;;;;8.98;78.32;102396.81;5118914;27;45321;-69
2021/11/19 00:12:38;;;;;;;;;36.50;31.50;;;;;8.98;77.98;102398.59;5119188;27;45235;-72
2021/11/19 00:15:05;;;;;;;;;47.00;34.00;;;;;8.98;78.32;102395.97;5118673;27;46127;-70
2021/11/19 00:17:30;;;;;;;;;43.00;35.50;;;;;8.99;78.10;102400.34;5118954;27;45489;-75
2021/11/19 00:19:55;;;;;;;;;44.00;34.00;;;;;8.96;77.89;102395.94;5120617;27;45325;-73
2021/11/19 00:22:21;;;;;;;;;42.75;32.75;;;;;8.98;77.94;102393.34;5120920;27;45648;-69
2021/11/19 00:24:48;;;;;;;;;38.25;31.00;;;;;8.99;77.77;102385.44;5118766;27;46913;-72
2021/11/19 00:27:16;;;;;;;;;35.75;29.25;;;;;9.01;77.83;102395.94;5128305;27;45295;-74
2021/11/19 00:29:43;;;;;;;;;35.00;31.75;;;;;8.97;77.95;102386.34;5128376;27;45318;-71
2021/11/19 00:32:10;;;;;;;;;46.75;33.25;;;;;8.97;77.63;102381.94;5119446;27;45353;-67
2021/11/19 00:34:36;;;;;;;;;34.75;30.25;;;;;8.99;77.99;102388.06;5118394;27;47027;-71
2021/11/19 00:37:02;;;;;;;;;36.50;30.25;;;;;8.95;77.88;102378.47;5118486;27;45377;-70
2021/11/19 00:39:27;;;;;;;;;43.00;29.25;;;;;9.01;77.73;102393.31;5118166;27;45550;-69
2021/11/19 00:41:54;;;;;;;;;37.75;30.00;;;;;9.00;77.59;102381.94;5119713;27;45397;-76
2021/11/19 00:44:21;;;;;;;;;36.25;30.25;;;;;9.01;77.87;102378.47;5120240;27;45777;-70
2021/11/19 00:46:52;;;;;;;;;32.50;29.75;;;;;9.01;77.54;102380.19;5121588;27;45275;-72
2021/11/19 00:49:21;;;;;;;;;38.00;30.75;;;;;9.02;77.35;102389.81;5120092;27;45449;-73
2021/11/19 00:51:49;;;;;;;;;31.50;27.75;;;;;8.96;77.52;102364.47;5153159;27;45470;-76
2021/11/19 00:54:15;;;;;;;;;39.25;34.75;;;;;9.05;77.43;102379.31;5117865;27;46206;-73
2021/11/19 00:56:49;;;;;;;;;38.75;33.25;;;;;9.05;77.10;102380.19;5119262;27;45265;-75
2021/11/19 00:59:17;;;;;;;;;38.00;31.75;;;;;9.02;76.93;102376.69;5118575;27;45301;-78
2021/11/19 01:01:52;;;;;;;;;43.75;33.25;;;;;8.99;77.17;102374.09;5117374;27;45421;-72
2021/11/19 01:04:17;;;;;;;;;33.75;28.75;;;;;9.01;77.63;102378.47;5118965;27;46574;-71
2021/11/19 01:06:44;;;;;;;;;38.25;32.50;;;;;9.01;77.12;102375.84;5117105;27;45285;-69
2021/11/19 01:09:23;;;;;;;;;40.75;34.25;;;;;9.01;77.26;102369.69;5119574;27;45311;-72
2021/11/19 01:11:49;;;;;;;;;40.50;33.25;;;;;8.99;77.21;102367.06;5124741;27;45353;-71
2021/11/19 01:14:23;;;;;;;;;34.25;30.00;;;;;8.95;77.17;102367.09;5106502;27;47403;-71
2021/11/19 01:16:54;;;;;;;;;31.00;28.25;;;;;8.93;77.09;102372.34;5027139;27;45330;-77
2021/11/19 01:19:28;;;;;;;;;35.25;30.25;;;;;8.95;77.40;102369.72;5071288;27;45362;-74
2021/11/19 01:22:02;;;;;;;;;29.25;24.50;;;;;8.91;76.98;102375.00;5072701;27;45471;-70
2021/11/19 01:24:29;;;;;;;;;35.50;30.50;;;;;8.94;77.37;102370.59;5042663;27;46302;-72
2021/11/19 01:26:55;;;;;;;;;32.75;29.00;;;;;8.89;76.70;102349.63;5032778;27;45422;-75
2021/11/19 01:29:21;;;;;;;;;34.25;30.75;;;;;8.98;77.58;102360.06;5032725;27;45561;-73
2021/11/19 01:31:49;;;;;;;;;36.50;32.50;;;;;8.98;77.04;102356.59;5031030;27;45641;-71
2021/11/19 01:34:16;;;;;;;;;29.50;26.75;;;;;8.97;77.21;102360.09;5096041;27;46293;-70
2021/11/19 01:36:42;;;;;;;;;38.50;28.25;;;;;8.96;77.00;102358.34;5045116;27;45305;-69
2021/11/19 01:39:17;;;;;;;;;36.25;29.50;;;;;8.99;77.10;102361.81;5117510;27;45471;-77
2021/11/19 01:41:56;;;;;;;;;33.75;25.75;;;;;8.96;77.03;102350.47;5117933;27;45577;-73
2021/11/19 01:44:36;;;;;;;;;34.00;30.50;;;;;8.97;76.87;102360.94;5119081;27;45328;-77
2021/11/19 01:47:05;;;;;;;;;32.25;29.00;;;;;8.95;77.26;102352.22;5118875;27;45178;-74
2021/11/19 01:49:32;;;;;;;;;34.25;32.00;;;;;8.95;77.01;102353.97;5117547;27;45508;-72
2021/11/19 01:52:05;;;;;;;;;32.25;30.00;;;;;8.98;77.19;102361.84;5117225;27;45502;-72
2021/11/19 01:54:41;;;;;;;;;33.25;29.00;;;;;9.01;76.91;102367.06;5017809;27;45437;-69
2021/11/19 01:57:38;;;;;;;;;39.75;31.00;;;;;9.01;76.95;102354.84;5088614;27;45526;-70
2021/11/19 02:00:17;;;;;;;;;33.00;27.50;;;;;9.03;77.00;102352.19;5033051;27;45394;-70
2021/11/19 02:02:45;;;;;;;;;35.25;27.25;;;;;9.01;76.99;102348.69;5032569;27;45448;-71
2021/11/19 02:05:22;;;;;;;;;37.00;33.00;;;;;9.00;77.21;102344.34;5032581;27;46401;-70
2021/11/19 02:07:55;;;;;;;;;38.00;31.00;;;;;9.06;76.88;102353.06;5034100;27;45217;-71
2021/11/19 02:10:38;;;;;;;;;42.00;30.25;;;;;9.05;76.76;102346.06;5056122;27;45404;-70
2021/11/19 02:13:24;;;;;;;;;30.75;25.75;;;;;9.01;76.91;102343.44;5031056;27;45492;-70
2021/11/19 02:15:54;;;;;;;;;32.00;27.00;;;;;9.05;76.99;102353.06;5064679;27;46387;-70
2021/11/19 02:18:29;;;;;;;;;33.75;27.50;;;;;9.08;76.81;102357.44;5032736;27;45416;-71
2021/11/19 02:21:01;;;;;;;;;32.50;27.25;;;;;9.02;76.76;102339.94;5031761;28;45413;-71
2021/11/19 02:23:42;;;;;;;;;27.25;25.00;;;;;9.09;76.70;102346.91;5031760;27;45456;-70
2021/11/19 02:26:12;;;;;;;;;34.25;30.75;;;;;9.11;76.77;102357.41;5032105;27;45467;-71
2021/11/19 02:28:41;;;;;;;;;35.25;27.50;;;;;9.06;76.61;102344.28;5011231;27;45418;-71
2021/11/19 02:31:11;;;;;;;;;29.00;25.75;;;;;9.12;76.46;102356.53;5115958;27;45409;-71
2021/11/19 02:33:40;;;;;;;;;28.75;25.25;;;;;9.15;76.47;102354.75;5115879;27;45293;-71
2021/11/19 02:36:13;;;;;;;;;43.50;31.00;;;;;9.13;76.49;102348.63;5116152;27;46193;-71
2021/11/19 02:39:07;;;;;;;;;36.50;26.75;;;;;9.15;76.66;102351.25;5036952;27;45461;-70
2021/11/19 02:41:36;;;;;;;;;36.00;29.00;;;;;9.15;76.45;102339.00;5052373;27;45392;-70
2021/11/19 02:44:08;;;;;;;;;34.50;27.00;;;;;9.11;76.41;102339.88;5022906;27;45503;-70
2021/11/19 02:46:40;;;;;;;;;29.75;27.00;;;;;9.16;76.28;102347.75;5105532;27;46570;-70
2021/11/19 02:49:07;;;;;;;;;31.75;27.50;;;;;9.14;76.16;102347.75;5115628;27;45566;-71
2021/11/19 02:51:35;;;;;;;;;32.25;27.00;;;;;9.14;76.59;102347.75;5115747;27;45406;-71
2021/11/19 02:54:02;;;;;;;;;36.25;29.50;;;;;9.11;76.71;102347.78;5099430;27;45490;-71
2021/11/19 02:56:28;;;;;;;;;28.50;23.75;;;;;9.09;76.46;102339.03;5107113;27;45538;-71
2021/11/19 02:58:56;;;;;;;;;26.75;23.75;;;;;9.12;76.71;102354.75;5118998;27;45433;-70
2021/11/19 03:01:32;;;;;;;;;40.75;31.75;;;;;9.12;76.31;102344.25;5071466;27;45369;-70
2021/11/19 03:04:03;;;;;;;;;35.25;23.75;;;;;9.14;76.56;102350.38;5003460;27;45457;-71
2021/11/19 03:06:35;;;;;;;;;33.50;25.75;;;;;9.12;76.60;102341.63;5104107;27;46457;-71
2021/11/19 03:09:00;;;;;;;;;37.00;30.00;;;;;9.11;76.71;102332.03;5111572;27;45505;-70
2021/11/19 03:11:26;;;;;;;;;30.25;27.50;;;;;9.17;76.38;102344.25;5119974;27;45370;-70
2021/11/19 03:13:51;;;;;;;;;33.25;27.00;;;;;9.19;76.26;102342.50;5121059;27;45344;-71
2021/11/19 03:16:18;;;;;;;;;33.25;27.00;;;;;9.20;76.39;102346.84;5055698;27;47932;-71
2021/11/19 03:18:43;;;;;;;;;39.25;34.00;;;;;9.20;76.39;102334.59;5039749;27;45469;-71
2021/11/19 03:21:15;;;;;;;;;32.00;28.50;;;;;9.25;76.47;102334.56;5118921;27;45444;-72
2021/11/19 03:23:42;;;;;;;;;31.75;27.25;;;;;9.30;76.16;102337.16;5071155;27;45403;-71
2021/11/19 03:26:08;;;;;;;;;33.25;30.25;;;;;9.27;75.98;102329.28;5034450;27;45498;-70
2021/11/19 03:28:34;;;;;;;;;31.25;26.50;;;;;9.26;76.19;102322.28;5037987;27;45436;-71
2021/11/19 03:31:04;;;;;;;;;31.00;25.50;;;;;9.28;75.90;102325.78;5093089;27;45459;-72
2021/11/19 03:33:32;;;;;;;;;33.00;29.00;;;;;9.29;76.23;102327.53;5122150;27;45376;-71
2021/11/19 03:35:59;;;;;;;;;36.00;28.25;;;;;9.28;76.33;102323.16;5040781;27;45521;-73
2021/11/19 03:38:27;;;;;;;;;32.75;30.00;;;;;9.26;75.98;102324.91;5100019;27;45354;-71
2021/11/19 03:40:54;;;;;;;;;36.00;28.75;;;;;9.25;76.14;102328.44;5118928;27;45435;-71
2021/11/19 03:43:24;;;;;;;;;32.75;29.00;;;;;9.22;76.19;102318.84;5093460;27;45506;-71
2021/11/19 03:45:57;;;;;;;;;31.75;28.00;;;;;9.27;76.45;102329.28;5118901;27;46335;-69
2021/11/19 03:48:23;;;;;;;;;34.75;30.00;;;;;9.29;75.77;102330.16;5119369;27;45459;-72
2021/11/19 03:50:52;;;;;;;;;34.75;29.25;;;;;9.31;76.25;102331.00;5119203;27;45394;-73
2021/11/19 03:53:20;;;;;;;;;33.00;29.25;;;;;9.31;76.14;102331.00;5030469;27;45328;-72
2021/11/19 03:55:49;;;;;;;;;31.75;26.25;;;;;9.27;76.17;102327.56;5078424;27;46061;-71
2021/11/19 03:58:17;;;;;;;;;34.00;29.00;;;;;9.28;76.25;102326.66;5120567;27;45389;-70
2021/11/19 04:00:47;;;;;;;;;33.00;25.00;;;;;9.30;75.84;102326.66;5117936;27;45372;-70
2021/11/19 04:03:15;;;;;;;;;36.00;29.50;;;;;9.29;75.90;102319.66;5119287;27;45579;-70
2021/11/19 04:05:41;;;;;;;;;28.00;28.00;;;;;9.29;76.09;102325.78;5121586;27;46102;-72
2021/11/19 04:08:07;;;;;;;;;34.00;25.75;;;;;9.30;75.86;102329.28;5119125;27;45518;-70
2021/11/19 04:10:33;;;;;;;;;26.00;25.50;;;;;9.32;75.94;102322.25;5010708;27;45496;-70
2021/11/19 04:12:59;;;;;;;;;28.75;24.50;;;;;9.30;76.01;102321.38;5118985;27;45392;-72
2021/11/19 04:15:31;;;;;;;;;31.75;29.00;;;;;9.29;75.91;102323.16;5119121;27;46241;-70
2021/11/19 04:17:57;;;;;;;;;34.75;30.00;;;;;9.32;76.09;102332.75;5118891;27;45475;-70
2021/11/19 04:20:24;;;;;;;;;35.25;28.00;;;;;9.32;75.74;102341.53;5119008;27;45387;-71
2021/11/19 04:22:49;;;;;;;;;36.50;28.00;;;;;9.31;75.93;102339.78;5122127;27;45309;-70
2021/11/19 04:25:18;;;;;;;;;33.75;29.25;;;;;9.30;75.91;102332.78;5121111;27;45958;-70
2021/11/19 04:27:44;;;;;;;;;32.25;27.00;;;;;9.29;75.64;102327.53;5070567;27;45297;-71
2021/11/19 04:30:14;;;;;;;;;28.25;25.25;;;;;9.29;75.58;102330.16;5118324;27;45401;-71
2021/11/19 04:32:40;;;;;;;;;29.25;24.50;;;;;9.28;75.87;102337.19;5073409;27;45419;-70
2021/11/19 04:35:06;;;;;;;;;33.25;26.50;;;;;9.29;75.80;102331.03;5118026;27;46299;-69
2021/11/19 04:37:32;;;;;;;;;31.75;26.25;;;;;9.30;75.86;102327.53;5117162;27;45327;-70
2021/11/19 04:39:57;;;;;;;;;31.00;26.25;;;;;9.24;75.63;102306.56;5133520;27;45417;-70
2021/11/19 04:42:23;;;;;;;;;34.75;29.00;;;;;9.35;75.72;102330.09;5117812;27;45377;-72
2021/11/19 04:44:49;;;;;;;;;31.00;27.50;;;;;9.35;75.92;102333.63;5032545;27;46357;-70
2021/11/19 04:47:15;;;;;;;;;30.25;26.00;;;;;9.34;75.75;102328.38;5086376;27;45550;-71
2021/11/19 04:49:40;;;;;;;;;30.50;23.75;;;;;9.34;75.48;102331.00;5069994;27;45420;-70
2021/11/19 04:52:09;;;;;;;;;33.75;26.50;;;;;9.35;75.87;102330.09;5056112;27;45461;-70
2021/11/19 04:54:35;;;;;;;;;32.75;26.75;;;;;9.35;75.50;102327.47;5019533;27;46158;-71
2021/11/19 04:57:01;;;;;;;;;30.50;27.75;;;;;9.38;75.64;102324.84;5055677;27;45411;-71
2021/11/19 04:59:26;;;;;;;;;33.75;27.00;;;;;9.38;75.16;102327.47;5082159;27;45476;-70
2021/11/19 05:01:56;;;;;;;;;28.25;25.00;;;;;9.36;74.98;102329.22;5071085;27;45344;-71
2021/11/19 05:04:22;;;;;;;;;29.75;27.00;;;;;9.35;75.56;102325.75;5111682;27;46126;-71
2021/11/19 05:06:49;;;;;;;;;30.00;22.75;;;;;9.38;75.20;102331.84;5116955;27;45399;-71
2021/11/19 05:09:15;;;;;;;;;32.50;27.00;;;;;9.38;75.17;102327.47;5109524;27;45411;-69
2021/11/19 05:11:53;;;;;;;;;33.25;30.00;;;;;9.37;75.39;102320.47;5120668;27;45513;-72
2021/11/19 05:14:20;;;;;;;;;31.25;26.25;;;;;9.39;75.20;102318.69;5112849;27;46243;-70
2021/11/19 05:16:46;;;;;;;;;30.75;27.00;;;;;9.37;75.17;102316.97;5104756;27;45403;-71
2021/11/19 05:19:11;;;;;;;;;40.25;30.00;;;;;9.38;75.27;102316.97;5040999;27;45346;-75
2021/11/19 05:21:37;;;;;;;;;38.00;31.50;;;;;9.39;75.30;102316.06;5080746;27;45484;-70
2021/11/19 05:24:05;;;;;;;;;32.00;29.00;;;;;9.38;75.24;102311.69;5055188;27;46101;-71
2021/11/19 05:26:32;;;;;;;;;34.75;28.75;;;;;9.40;75.05;102315.19;5108172;27;46634;-70
2021/11/19 05:28:58;;;;;;;;;34.25;27.25;;;;;9.38;75.19;102313.47;5102500;27;45492;-70
2021/11/19 05:31:25;;;;;;;;;33.50;29.50;;;;;9.36;75.18;102308.22;5114434;27;45531;-71
2021/11/19 05:33:50;;;;;;;;;31.00;28.75;;;;;9.38;75.34;102311.69;5067286;27;46248;-70
2021/11/19 05:36:16;;;;;;;;;34.00;27.50;;;;;9.39;74.94;102317.84;5095872;27;45327;-71
2021/11/19 05:38:42;;;;;;;;;29.50;25.25;;;;;9.33;75.50;102303.88;5055301;27;45545;-70
2021/11/19 05:41:13;;;;;;;;;36.25;28.00;;;;;9.42;74.86;102321.31;5116806;27;45380;-70
2021/11/19 05:43:41;;;;;;;;;32.50;28.00;;;;;9.43;74.93;102320.41;5116225;27;46234;-70
2021/11/19 05:46:08;;;;;;;;;36.75;29.50;;;;;9.43;74.96;102315.16;5116368;27;45442;-69
2021/11/19 05:48:33;;;;;;;;;30.75;23.00;;;;;9.42;74.93;102321.31;5109148;27;45377;-70
2021/11/19 05:50:59;;;;;;;;;27.75;26.75;;;;;9.41;74.53;102316.06;5027333;28;45293;-70
2021/11/19 05:53:25;;;;;;;;;31.50;25.25;;;;;9.40;74.93;102323.06;5058068;27;45350;-71
2021/11/19 05:55:51;;;;;;;;;32.25;26.75;;;;;9.42;75.03;102334.44;5116437;27;45387;-70
2021/11/19 05:58:19;;;;;;;;;31.75;26.75;;;;;9.41;74.86;102339.72;5060289;27;45398;-70
2021/11/19 06:00:49;;;;;;;;;28.50;23.75;;;;;9.38;74.96;102340.59;5029984;27;45615;-72
2021/11/19 06:03:15;;;;;;;;;30.00;24.25;;;;;9.39;74.87;102330.97;5149659;27;48137;-69
2021/11/19 06:05:41;;;;;;;;;31.00;26.50;;;;;9.38;74.59;102335.34;5088141;27;45392;-70
2021/11/19 06:08:07;;;;;;;;;36.25;29.25;;;;;9.32;75.22;102323.13;5087800;27;45432;-69
2021/11/19 06:10:38;;;;;;;;;29.25;27.75;;;;;9.40;75.21;102335.34;5034660;27;45526;-70
2021/11/19 06:13:07;;;;;;;;;29.25;25.00;;;;;9.41;74.95;102337.94;5117326;27;46075;-72
2021/11/19 06:15:36;;;;;;;;;28.25;26.25;;;;;9.40;74.65;102330.94;5085308;27;45448;-69
2021/11/19 06:18:07;;;;;;;;;34.50;28.00;;;;;9.41;74.93;102330.06;5113016;27;45420;-71
2021/11/19 06:20:41;;;;;;;;;28.00;26.50;;;;;9.45;75.16;102333.56;5017278;27;45443;-72
2021/11/19 06:23:13;;;;;;;;;24.25;24.00;;;;;9.39;75.46;102316.06;5090566;27;46120;-71
2021/11/19 06:25:41;;;;;;;;;37.25;29.25;;;;;9.49;75.26;102332.66;5010221;27;45369;-72
2021/11/19 06:28:12;;;;;;;;;32.00;28.00;;;;;9.34;74.38;102304.72;5077553;27;45313;-73
2021/11/19 06:30:37;;;;;;;;;31.00;27.00;;;;;9.50;74.91;102330.00;5113756;27;45300;-73
2021/11/19 06:33:04;;;;;;;;;37.00;32.50;;;;;9.54;74.69;102332.59;5097025;27;45503;-71
2021/11/19 06:35:30;;;;;;;;;36.75;32.50;;;;;9.57;75.00;102327.34;5069518;27;45526;-72
2021/11/19 06:37:56;;;;;;;;;37.00;30.00;;;;;9.52;75.03;102334.38;5066534;27;45373;-71
2021/11/19 06:40:28;;;;;;;;;37.00;30.25;;;;;9.53;74.91;102346.63;5015315;27;45688;-69
2021/11/19 06:42:57;;;;;;;;;35.75;30.25;;;;;9.46;75.06;102333.53;5083164;27;45334;-70
2021/11/19 06:45:24;;;;;;;;;36.75;31.50;;;;;9.52;74.72;102342.25;5095641;27;45395;-69
2021/11/19 06:47:49;;;;;;;;;33.00;28.50;;;;;9.54;74.90;102350.97;5120066;27;45533;-69
2021/11/19 06:50:18;;;;;;;;;30.50;26.75;;;;;9.49;74.50;102338.75;5107840;27;45456;-71
2021/11/19 06:52:44;;;;;;;;;32.50;29.75;;;;;9.54;74.40;102335.22;5038501;27;46189;-72
2021/11/19 06:55:11;;;;;;;;;30.75;27.00;;;;;9.57;74.55;102341.34;5058645;27;45479;-72
2021/11/19 06:57:38;;;;;;;;;44.75;33.25;;;;;9.58;74.44;102342.22;5119056;27;45428;-72
2021/11/19 07:00:12;;;;;;;;;30.00;26.75;;;;;9.56;74.47;102342.22;5025517;27;45809;-71
2021/11/19 07:02:38;;;;;;;;;31.75;29.25;;;;;9.59;74.78;102341.34;5022618;27;48704;-70
2021/11/19 07:05:04;;;;;;;;;31.00;27.00;;;;;9.53;75.02;102336.09;5091969;27;45961;-69
2021/11/19 07:07:29;;;;;;;;;33.25;29.25;;;;;9.52;74.52;102340.50;5120067;27;45310;-72
2021/11/19 07:09:55;;;;;;;;;34.00;29.75;;;;;9.61;74.47;102363.22;5031674;27;45314;-68
2021/11/19 07:12:20;;;;;;;;;29.75;24.75;;;;;9.57;74.67;102345.75;5063038;27;46714;-69
2021/11/19 07:14:46;;;;;;;;;28.25;24.00;;;;;9.65;74.85;102359.69;5076606;27;45327;-70
2021/11/19 07:17:11;;;;;;;;;36.75;29.25;;;;;9.62;74.80;102363.19;5050803;27;45395;-68
2021/11/19 07:19:38;;;;;;;;;32.50;26.75;;;;;9.69;74.76;102369.28;5120529;27;45406;-69
2021/11/19 07:22:04;;;;;;;;;30.25;27.50;;;;;9.73;74.84;102383.25;5114208;27;45691;-71
2021/11/19 07:24:33;;;;;;;;;39.25;32.50;;;;;9.75;74.40;102379.75;5023791;27;45276;-70
2021/11/19 07:26:58;;;;;;;;;38.50;32.50;;;;;9.78;74.55;102379.72;5031030;27;45376;-70
2021/11/19 07:29:26;;;;;;;;;40.00;31.00;;;;;9.84;74.30;102377.94;5037551;27;45427;-71
2021/11/19 07:31:51;;;;;;;;;35.50;29.25;;;;;9.85;74.65;102372.66;5015319;27;46385;-70
2021/11/19 07:34:17;;;;;;;;;40.00;33.00;;;;;9.83;74.44;102377.03;5008054;27;45636;-71
2021/11/19 07:36:43;;;;;;;;;34.50;30.00;;;;;9.88;74.00;102377.03;5115722;27;45347;-68
2021/11/19 07:39:10;;;;;;;;;32.75;30.00;;;;;9.93;73.73;102385.75;5116528;27;45406;-70
2021/11/19 07:41:36;;;;;;;;;34.25;29.00;;;;;9.87;73.58;102372.66;5068465;27;46647;-70
2021/11/19 07:44:03;;;;;;;;;44.50;32.25;;;;;9.93;73.87;102385.75;5111662;27;45611;-70
2021/11/19 07:46:29;;;;;;;;;34.25;30.00;;;;;9.96;74.25;102393.59;5019749;27;45389;-70
2021/11/19 07:48:56;;;;;;;;;29.25;27.25;;;;;10.00;74.26;102397.06;5099200;27;45707;-68
2021/11/19 07:51:27;;;;;;;;;34.00;29.50;;;;;10.03;73.39;102397.91;5056775;27;45469;-69
2021/11/19 07:53:53;;;;;;;;;35.25;30.50;;;;;10.09;73.91;102405.75;5118793;27;45362;-70
2021/11/19 07:56:27;;;;;;;;;32.50;29.75;;;;;10.12;74.08;102403.97;5101030;27;45439;-70
2021/11/19 07:58:52;;;;;;;;;35.50;30.00;;;;;10.11;73.53;102395.25;5076258;27;45578;-70
2021/11/19 08:01:18;;;;;;;;;33.00;29.25;;;;;10.20;73.12;102402.16;5053786;27;45934;-70
2021/11/19 08:03:43;;;;;;;;;32.25;29.00;;;;;10.22;73.39;102410.91;5081198;27;45447;-74
2021/11/19 08:06:09;;;;;;;;;33.25;30.25;;;;;10.18;72.67;102402.19;5117710;27;45416;-73
2021/11/19 08:08:37;;;;;;;;;31.50;29.00;;;;;10.17;73.16;102405.69;5019577;27;45574;-74
2021/11/19 08:11:09;;;;;;;;;33.25;29.50;;;;;10.19;73.14;102403.94;5118417;27;46121;-73
2021/11/19 08:13:35;;;;;;;;;34.50;31.25;;;;;10.18;73.41;102396.91;5074200;27;45829;-76
2021/11/19 08:16:01;;;;;;;;;28.25;25.25;;;;;10.30;72.75;102411.69;5033474;27;45509;-71
2021/11/19 08:18:42;;;;;;;;;35.75;29.75;;;;;10.27;73.00;102398.56;5034166;27;45808;-75
2021/11/19 08:21:09;;;;;;;;;38.00;32.50;;;;;10.36;72.56;102403.75;5033302;27;46322;-76
2021/11/19 08:23:41;;;;;;;;;31.50;29.50;;;;;10.41;72.46;102406.38;5030965;27;45452;-77
2021/11/19 08:26:12;;;;;;;;;31.25;30.00;;;;;10.42;72.37;102410.75;5082928;27;45556;-76
2021/11/19 08:28:38;;;;;;;;;40.50;32.25;;;;;10.42;72.56;102404.59;5117300;27;45452;-64
2021/11/19 08:31:07;;;;;;;;;35.00;28.50;;;;;10.48;72.25;102407.16;5091489;27;47242;-68
2021/11/19 08:33:33;;;;;;;;;34.25;29.00;;;;;10.53;72.17;102405.34;5032121;27;45481;-72
2021/11/19 08:35:59;;;;;;;;;38.25;32.00;;;;;10.55;72.42;102400.09;5086202;27;45735;-73
2021/11/19 08:38:25;;;;;;;;;31.50;28.50;;;;;10.66;71.95;102406.09;5118553;27;45467;-74
2021/11/19 08:40:52;;;;;;;;;35.75;29.75;;;;;10.71;71.93;102413.97;5096823;27;45599;-73
2021/11/19 08:43:22;;;;;;;;;30.50;28.50;;;;;10.74;71.67;102401.63;5021391;28;45729;-73
2021/11/19 08:45:50;;;;;;;;;28.25;23.50;;;;;10.76;71.77;102396.34;5033892;27;45351;-72
2021/11/19 08:48:16;;;;;;;;;35.50;30.25;;;;;10.85;70.87;102404.16;5034020;27;45443;-74
2021/11/19 08:50:42;;;;;;;;;34.50;30.75;;;;;10.91;71.42;102400.53;5045508;27;46346;-72
2021/11/19 08:53:11;;;;;;;;;34.75;30.75;;;;;10.95;70.83;102400.50;5117608;27;45394;-74
2021/11/19 08:55:46;;;;;;;;;28.75;27.25;;;;;11.01;70.89;102406.59;5118284;27;45167;-73
2021/11/19 08:58:24;;;;;;;;;33.75;28.50;;;;;11.10;70.69;102399.41;5044219;27;45348;-70
2021/11/19 09:00:51;;;;;;;;;36.75;29.50;;;;;11.19;70.47;102408.13;5016162;27;45339;-72
2021/11/19 09:03:17;;;;;;;;;35.00;29.25;;;;;11.18;70.52;102395.84;5117019;27;45354;-74
2021/11/19 09:05:45;;;;;;;;;36.50;32.25;;;;;11.21;70.41;102399.28;5117172;27;45470;-75
2021/11/19 09:08:14;;;;;;;;;35.00;28.00;;;;;11.32;70.35;102411.44;5116886;27;45407;-71
2021/11/19 09:10:40;;;;;;;;;35.25;28.75;;;;;11.36;69.92;102406.13;5111100;27;46293;-72
2021/11/19 09:13:06;;;;;;;;;38.75;29.25;;;;;11.42;69.52;102415.69;5117355;27;45484;-73
2021/11/19 09:15:32;;;;;;;;;32.00;28.00;;;;;11.48;70.00;102412.94;5062144;27;45333;-73
2021/11/19 09:18:07;;;;;;;;;37.75;30.25;;;;;11.58;69.63;102420.72;5075465;27;45303;-71
2021/11/19 09:21:03;;;;;;;;;35.50;28.75;;;;;11.63;69.49;102411.88;5118317;27;45431;-71
2021/11/19 09:23:32;;;;;;;;;31.00;28.75;;;;;11.72;69.17;102415.25;5118516;27;45307;-71
2021/11/19 09:26:04;;;;;;;;;37.25;31.75;;;;;11.76;69.02;102416.94;5120667;27;45469;-73
2021/11/19 09:28:35;;;;;;;;;34.00;30.75;;;;;11.82;68.55;102417.72;5120433;27;45414;-73
2021/11/19 09:31:02;;;;;;;;;35.75;31.00;;;;;11.82;68.39;102409.81;5121257;27;46233;-70
2021/11/19 09:33:28;;;;;;;;;30.25;27.00;;;;;11.92;68.96;102430.78;5070089;27;45499;-73
2021/11/19 09:35:55;;;;;;;;;35.25;30.50;;;;;11.94;68.42;102429.84;5117160;27;45300;-73
2021/11/19 09:38:24;;;;;;;;;30.00;25.25;;;;;11.99;68.06;102432.41;5116991;27;45432;-72
2021/11/19 09:40:59;;;;;;;;;31.25;29.50;;;;;12.01;68.05;102428.00;5116294;27;46262;-72
2021/11/19 09:44:03;;;;;;;;;35.25;28.75;;;;;12.05;67.60;102436.72;5116786;27;45965;-71
2021/11/19 09:47:00;;;;;;;;;43.00;36.00;;;;;12.09;68.33;102431.38;5080841;27;45559;-73
2021/11/19 09:50:09;;;;;;;;;30.50;28.00;;;;;12.14;67.64;102428.66;5099719;27;45352;-71
2021/11/19 09:52:49;;;;;;;;;33.75;29.25;;;;;12.18;67.25;102422.44;5034897;27;48055;-73
2021/11/19 09:55:47;;;;;;;;;29.75;29.00;;;;;12.25;67.68;102428.47;5116808;27;46061;-72
2021/11/19 09:58:37;;;;;;;;;28.00;24.75;;;;;12.34;67.53;102422.19;5091028;27;45542;-71
2021/11/19 10:01:08;;;;;;;;;28.50;25.50;;;;;12.41;66.96;102419.38;5104246;27;45318;-73
2021/11/19 10:04:04;;;;;;;;;28.75;25.25;;;;;12.48;66.87;102420.16;5120790;27;46060;-71
2021/11/19 10:06:54;;;;;;;;;32.00;27.00;;;;;12.51;66.55;102413.94;5076027;27;45309;-70
2021/11/19 10:09:32;;;;;;;;;29.00;26.75;;;;;12.37;66.64;102390.47;5088764;27;45474;-74
2021/11/19 10:12:27;;;;;;;;;31.75;23.50;;;;;12.62;66.68;102417.25;5116510;27;45514;-73
2021/11/19 10:14:59;;;;;;;;;35.50;31.50;;;;;12.67;66.09;102415.38;5018663;27;45429;-73
2021/11/19 10:17:33;;;;;;;;;33.00;26.50;;;;;12.65;65.88;102406.63;5116664;27;45473;-71
2021/11/19 10:20:04;;;;;;;;;32.50;25.75;;;;;12.76;65.92;102410.84;5116571;27;45559;-72
2021/11/19 10:22:35;;;;;;;;;29.25;28.75;;;;;12.77;65.53;102397.59;5111278;27;45241;-71
2021/11/19 10:25:27;;;;;;;;;34.00;30.00;;;;;12.80;65.49;102394.03;4991767;28;47616;-70
2021/11/19 10:27:55;;;;;;;;;41.50;33.25;;;;;12.78;65.10;102387.91;5070610;27;45409;-72
2021/11/19 10:30:31;;;;;;;;;39.25;33.75;;;;;12.90;65.08;102405.25;5123265;27;45425;-72
2021/11/19 10:33:09;;;;;;;;;46.25;36.50;;;;;12.93;65.15;102403.44;5119381;27;45546;-72
2021/11/19 10:35:53;;;;;;;;;33.50;31.50;;;;;12.97;65.15;102401.59;5115942;27;45476;-73
2021/11/19 10:38:53;;;;;;;;;34.50;29.25;;;;;13.02;64.63;102405.00;5046603;27;45468;-74
2021/11/19 10:42:00;;;;;;;;;27.00;24.00;;;;;13.06;64.81;102400.53;5050620;27;45464;-74
2021/11/19 10:44:31;;;;;;;;;34.75;32.00;;;;;13.13;65.06;102402.13;5073266;28;45695;-73
2021/11/19 10:47:33;;;;;;;;;54.25;44.25;;;;;13.19;64.84;102401.13;5084160;27;46259;-74
2021/11/19 10:50:23;;;;;;;;;37.00;29.00;;;;;13.22;64.47;102399.28;5081821;27;45302;-74
2021/11/19 10:52:49;;;;;;;;;39.00;31.50;;;;;13.24;64.51;102400.13;5116991;27;45361;-76
2021/11/19 10:55:42;;;;;;;;;41.75;31.25;;;;;13.30;64.53;102401.78;5118069;27;45342;-74
2021/11/19 10:58:47;;;;;;;;;35.50;31.50;;;;;13.31;64.23;102398.22;5043467;27;47423;-73
2021/11/19 11:01:35;;;;;;;;;40.25;33.50;;;;;13.35;63.93;102394.63;5035896;27;45612;-72
2021/11/19 11:04:16;;;;;;;;;34.00;30.75;;;;;13.39;63.75;102393.63;5110708;27;45328;-72
2021/11/19 11:07:07;;;;;;;;;36.25;29.75;;;;;13.42;63.77;102390.97;5117544;27;45285;-74
2021/11/19 11:09:41;;;;;;;;;27.25;27.25;;;;;13.44;63.31;102382.97;5107682;27;45464;-72
2021/11/19 11:12:22;;;;;;;;;41.00;33.00;;;;;13.44;64.08;102388.25;5056059;27;45397;-72
2021/11/19 11:15:06;;;;;;;;;25.75;22.25;;;;;13.32;63.40;102359.44;5013119;27;45486;-72
2021/11/19 11:17:35;;;;;;;;;26.50;19.75;;;;;13.49;63.34;102386.38;5064531;27;45425;-72
2021/11/19 11:20:17;;;;;;;;;59.25;47.25;;;;;13.51;63.09;102381.06;5119669;27;46633;-77
2021/11/19 11:22:54;;;;;;;;;26.50;25.00;;;;;13.52;62.95;102378.38;5118959;27;45361;-72
2021/11/19 11:25:36;;;;;;;;;18.50;18.50;;;;;13.51;62.16;102381.91;5118934;27;45389;-73
2021/11/19 11:28:13;;;;;;;;;22.00;17.25;;;;;13.48;62.59;102370.56;5119161;27;45381;-73
2021/11/19 11:30:58;;;;;;;;;19.50;17.50;;;;;13.47;62.33;102368.84;5108300;27;46329;-72